Home > Products > Valid Products > TAF

000
FTUS41 KCAR 081917 AAC
TAFBGR
TAF AMD
KBGR 081917Z 0819/0918 03012KT P6SM -SN SCT025 OVC050
     FM082100 03013G20KT 1 1/2SM -SN OVC015
     FM090200 35010KT 3/4SM -SN OVC015
     FM090700 35010G20KT 1/2SM SN OVC010
     FM091300 02009KT 1 1/2SM -SN OVC015
     FM091600 36010G20KT 5SM -SN OVC020=



000
FTUS41 KCAR 081917 AAC
TAFBHB
TAF AMD
KBHB 081917Z 0819/0918 03015G22KT P6SM -SN SCT025 OVC040
     FM082000 02015G25KT 2SM -SN BLSN OVC015
     FM082200 02020G30KT 3/4SM -SN BLSN OVC007
     FM090000 02018G26KT 1/2SM SN BLSN OVC007
     FM090300 36017G24KT 1SM -SN OVC010
     FM090900 35011KT 2SM -SN OVC010
     FM091400 02009KT P6SM OVC020
      AMD LTD TO CLD VIS AND WIND=



000
FTUS41 KCAR 081916 AAC
TAFHUL
TAF AMD
KHUL 081916Z 0819/0918 05011KT P6SM SCT025 BKN250
     FM082100 04013G20KT P6SM BKN015
     FM090200 01012G22KT 2SM -SN OVC010
     FM090400 01012G22KT 1SM -SN OVC010
     FM091200 02009KT 1SM -SN OVC008
     FM091600 03010KT 2SM -SN OVC008=



000
FTUS41 KCAR 081742 AAA
TAFPQI
TAF AMD
KPQI 081742Z 0818/0918 04010KT P6SM BKN250
     FM090000 03013G20KT P6SM BKN030
     FM090300 02012KT P6SM OVC015
     FM090500 01013KT 2SM -SN OVC015
     FM091200 02008KT 1SM -SN OVC015=



000
FTUS41 KCAR 081742 AAB
TAFHUL
TAF AMD
KHUL 081742Z 0818/0918 05011KT P6SM BKN025
     FM082100 04013G20KT P6SM BKN015
     FM090200 01012G22KT 2SM -SN OVC010
     FM090400 01012G22KT 1SM -SN OVC010
     FM091200 02009KT 1SM -SN OVC008
     FM091600 03010KT 2SM -SN OVC008=



000
FTUS41 KCAR 081742 AAB
TAFBHB
TAF AMD
KBHB 081742Z 0818/0918 03015G22KT P6SM -SN OVC025
     FM082000 02015G25KT 2SM -SN BLSN OVC015
     FM082200 02020G30KT 3/4SM -SN BLSN OVC007
     FM090000 02018G26KT 1/2SM SN BLSN OVC007
     FM090300 36017G24KT 1SM -SN OVC010
     FM090900 35011KT 2SM -SN OVC010
     FM091400 02009KT P6SM OVC020
      AMD LTD TO CLD VIS AND WIND=



000
FTUS41 KCAR 081742 AAB
TAFCAR
TAF AMD
KCAR 081742Z 0818/0918 04010KT P6SM BKN250
     FM090100 03013G20KT P6SM SCT015 OVC025
     FM090400 02012G22KT P6SM -SN OVC015
     FM090600 01012G22KT 2SM -SN OVC015
     FM090800 01012G22KT 1SM -SN OVC015
     FM091200 02008KT 1SM -SN OVC015
     FM091700 03010KT 2SM -SN OVC010=



000
FTUS41 KCAR 081742 AAB
TAFBGR
TAF AMD
KBGR 081742Z 0818/0918 03012KT P6SM -SN OVC025
     FM082100 03013G20KT 1 1/2SM -SN OVC015
     FM090200 35010KT 3/4SM -SN OVC015
     FM090700 35010G20KT 1/2SM SN OVC010
     FM091300 02009KT 1 1/2SM -SN OVC015
     FM091600 36010G20KT 5SM -SN OVC020=



000
FTUS41 KCAR 081531 AAA
TAFHUL
TAF AMD
KHUL 081531Z 0816/0912 00000KT P6SM OVC025
     FM081800 04011KT 3SM -SN BR OVC015
     FM090200 01012KT 1SM -SN BR OVC015
     FM090600 36012KT 3/4SM -SN BR OVC007=



000
FTUS41 KCAR 081511 AAA
TAFBGR
TAF AMD
KBGR 081511Z 0815/0912 02014KT P6SM SCT025 BKN200
     FM081600 03012KT P6SM OVC025
     FM081800 03013KT 6SM -SN OVC025
     FM082000 03013KT 2SM -SN OVC015
     FM090300 36015G25KT 3/4SM -SN BLSN OVC008=



000
FTUS41 KCAR 081420 AAA
TAFBHB
TAF AMD
KBHB 081420Z 0814/0912 02015G25KT P6SM OVC015
     FM081700 03015G25KT 3SM -SN SCT010 BKN020
     FM082100 03020G30KT 1SM -SN BLSN OVC010
     FM090100 02020G30KT 1/2SM -SN BLSN VV008
      AMD LTD TO CLD VIS AND WIND=



000
FTUS41 KCAR 081420 AAA
TAFBHB
TAF AMD
KBHB 081420Z 0814/0912 02015G25KT P6SM OVC015
     FM081700 03015G25KT 3SM -SN SCT010 BKN020
     FM082100 03020G30KT 1SM -SN BLSN OVC010
     FM090100 02020G30KT 1/2SM -SN BLSN VV008
      AMD LTD TO CLD VIS AND WIND=



000
FTUS41 KCAR 081120
TAFHUL
TAF
KHUL 081120Z 0812/0912 00000KT P6SM SKC
     FM081800 04011KT P6SM BKN140
     FM090200 01012KT 2SM -SN BR OVC015
     FM090600 36012KT 3/4SM -SN BR OVC008=



000
FTUS41 KCAR 081120
TAFCAR
TAF
KCAR 081120Z 0812/0912 01009KT P6SM SKC
     FM082200 04010KT P6SM BKN120
     FM090500 36012KT 5SM -SN BR OVC025
     FM090900 36012KT 1SM -SN BR OVC012=



000
FTUS41 KCAR 081120
TAFCAR
TAF
KCAR 081120Z 0812/0912 01009KT P6SM SKC
     FM082200 04010KT P6SM BKN120
     FM090500 36012KT 5SM -SN BR OVC025
     FM090900 36012KT 1SM -SN BR OVC012=



000
FTUS41 KCAR 081120
TAFBGR
TAF
KBGR 081120Z 0812/0912 02014KT P6SM BKN200
     FM081600 03012KT P6SM BKN100 OVC180
     FM081900 03013KT P6SM BKN025
     FM082000 03013KT 2SM -SN OVC020
     FM090300 36015G25KT 3/4SM -SN BLSN OVC008=



000
FTUS41 KCAR 081120
TAFPQI
TAF
KPQI 081120Z 0812/0912 36008KT P6SM SKC
     FM082200 04010KT P6SM BKN110
     FM090500 36012KT 4SM -SN BR OVC020
     FM090800 35010KT 1SM -SN BR OVC012=



000
FTUS41 KCAR 081120
TAFHUL
TAF
KHUL 081120Z 0812/0912 00000KT P6SM SKC
     FM081800 04011KT P6SM BKN140
     FM090200 01012KT 2SM -SN BR OVC015
     FM090600 36012KT 3/4SM -SN BR OVC008=



000
FTUS41 KCAR 081120
TAFBGR
TAF
KBGR 081120Z 0812/0912 02014KT P6SM BKN200
     FM081600 03012KT P6SM BKN100 OVC180
     FM081900 03013KT P6SM BKN025
     FM082000 03013KT 2SM -SN OVC020
     FM090300 36015G25KT 3/4SM -SN BLSN OVC008=



000
FTUS41 KCAR 081120
TAFPQI
TAF
KPQI 081120Z 0812/0912 36008KT P6SM SKC
     FM082200 04010KT P6SM BKN110
     FM090500 36012KT 4SM -SN BR OVC020
     FM090800 35010KT 1SM -SN BR OVC012=



000
FTUS41 KCAR 081120
TAFBHB
TAF
KBHB 081120Z 0812/0912 02013G20KT P6SM OVC200
     FM081500 04016G24KT P6SM BKN100 OVC150
     FM081700 03016G26KT 6SM -SN BKN080
     FM082100 03017G24KT 1SM -SN BLSN OVC015
     FM090100 02018G28KT 1/2SM -SN BLSN VV008
      AMD LTD TO CLD VIS AND WIND=



000
FTUS41 KCAR 081120
TAFBHB
TAF
KBHB 081120Z 0812/0912 02013G20KT P6SM OVC200
     FM081500 04016G24KT P6SM BKN100 OVC150
     FM081700 03016G26KT 6SM -SN BKN080
     FM082100 03017G24KT 1SM -SN BLSN OVC015
     FM090100 02018G28KT 1/2SM -SN BLSN VV008
      AMD LTD TO CLD VIS AND WIND=



000
FTUS41 KCAR 080520
TAFCAR
TAF
KCAR 080520Z 0806/0906 36005KT P6SM SKC
     FM082200 04010KT P6SM BKN120
     FM090500 36012KT 5SM -SN BR OVC025=



000
FTUS41 KCAR 080520
TAFBHB
TAF
KBHB 080520Z 0806/0906 04013KT P6SM SKC
     FM081500 04016KT P6SM BKN100
     FM081700 03016KT 6SM -SN BKN080
     FM082100 03017G24KT 1SM -SN BLSN OVC015
     FM090100 02018G28KT 1/2SM -SN BLSN VV008
      AMD LTD TO CLD VIS AND WIND=



000
FTUS41 KCAR 080520
TAFBGR
TAF
KBGR 080520Z 0806/0906 03008KT P6SM SKC
     FM081600 03012KT P6SM BKN100
     FM081900 03013KT P6SM BKN025
     FM082000 03013KT 2SM -SN OVC020
     FM090300 36015G25KT 3/4SM -SN BLSN OVC008=



000
FTUS41 KCAR 080520
TAFPQI
TAF
KPQI 080520Z 0806/0906 01005KT P6SM SKC
     FM082200 04010KT P6SM BKN110
     FM090500 36012KT 4SM -SN BR OVC020=



000
FTUS41 KCAR 080520
TAFHUL
TAF
KHUL 080520Z 0806/0906 00000KT P6SM SKC
     FM081800 04011KT P6SM BKN140
     FM090200 01012KT 2SM -SN BR OVC015=



000
FTUS41 KCAR 072320
TAFPQI
TAF
KPQI 072320Z 0800/0824 33005KT P6SM FEW250
     FM081500 03008KT P6SM SCT090
     FM082200 04010KT P6SM BKN110=



000
FTUS41 KCAR 072320
TAFBGR
TAF
KBGR 072320Z 0800/0824 03007KT P6SM SCT120
     FM081600 03012KT P6SM BKN100
     FM081900 03013KT P6SM BKN025
     FM082000 03013KT 2SM -SN OVC020=



000
FTUS41 KCAR 072320
TAFBHB
TAF
KBHB 072320Z 0800/0824 02008KT P6SM FEW130
     FM081500 04016KT P6SM BKN100
     FM081700 03016KT 6SM -SN BKN080
     FM082100 03017G24KT 1SM -SN BLSN OVC015
      AMD LTD TO CLD VIS AND WIND=



000
FTUS41 KCAR 072320
TAFHUL
TAF
KHUL 072320Z 0800/0824 35006KT P6SM FEW130
     FM081600 04010KT P6SM BKN200
     FM081800 04011KT P6SM BKN140=



000
FTUS41 KCAR 072320
TAFCAR
TAF
KCAR 072320Z 0800/0824 32005KT P6SM FEW200
     FM081500 03008KT P6SM SCT090
     FM082200 04010KT P6SM BKN110=



000
FTUS41 KCAR 072000 AAA
TAFPQI
TAF AMD
KPQI 072000Z 0720/0818 33009KT P6SM FEW250
     FM072100 31009KT P6SM FEW250
     FM080000 31005KT P6SM FEW200
     FM080400 01004KT P6SM SCT130
     FM081500 03008KT P6SM BKN015=



000
FTUS41 KCAR 071759 CCB
TAFCAR
TAF COR
KCAR 071759Z 0718/0818 32012G19KT P6SM FEW250
     FM072200 30007KT P6SM FEW250
     FM080300 01006KT P6SM FEW140
     FM081500 03008KT P6SM BKN015=



000
FTUS41 KCAR 071759 CCB
TAFCAR
TAF COR
KCAR 071759Z 0718/0818 32012G19KT P6SM FEW250
     FM072200 30007KT P6SM FEW250
     FM080300 01006KT P6SM FEW140
     FM081500 03008KT P6SM BKN015=



000
FTUS41 KCAR 071758 CCA
TAFPQI
TAF COR
KPQI 071758Z 0718/0818 33013G20KT P6SM FEW250
     FM072100 31009KT P6SM FEW250
     FM080000 31005KT P6SM FEW200
     FM080400 01004KT P6SM SCT130
     FM081500 03008KT P6SM BKN015=



000
FTUS41 KCAR 071758 CCA
TAFPQI
TAF COR
KPQI 071758Z 0718/0818 33013G20KT P6SM FEW250
     FM072100 31009KT P6SM FEW250
     FM080000 31005KT P6SM FEW200
     FM080400 01004KT P6SM SCT130
     FM081500 03008KT P6SM BKN015=



000
FTUS41 KCAR 071758 CCA
TAFBGR
TAF COR
KBGR 071758Z 0718/0818 32007KT P6SM SCT050
     FM071900 31007KT P6SM BKN250
     FM072300 01007KT P6SM SCT110
     FM081400 03012KT P6SM BKN015=



000
FTUS41 KCAR 071758 CCA
TAFBGR
TAF COR
KBGR 071758Z 0718/0818 32007KT P6SM SCT050
     FM071900 31007KT P6SM BKN250
     FM072300 01007KT P6SM SCT110
     FM081400 03012KT P6SM BKN015=



000
FTUS41 KCAR 071757
TAFPQI
TAF
KPQI 071757Z 0718/0818 31013G20KT P6SM FEW250
     FM072100 31009KT P6SM FEW250
     FM080000 31005KT P6SM FEW200
     FM080400 01004KT P6SM SCT130
     FM081500 03008KT P6SM BKN015=



000
FTUS41 KCAR 071757
TAFCAR
TAF
KCAR 071757Z 0718/0818 31012KT P6SM FEW250
     FM072200 30007KT P6SM FEW250
     FM080300 01006KT P6SM FEW140
     FM081500 03008KT P6SM BKN015=



000
FTUS41 KCAR 071757
TAFHUL
TAF
KHUL 071757Z 0718/0818 30013G20KT P6SM SCT250
     FM072000 32009KT P6SM FEW250
     FM080200 35005KT P6SM FEW120
     FM081400 04009KT P6SM BKN015=



000
FTUS41 KCAR 071757
TAFBHB
TAF
KBHB 071757Z 0718/0818 34007KT P6SM SCT250
     FM072200 34007KT P6SM SCT250
     FM080300 03011KT P6SM SCT250
     FM081400 03012KT P6SM BKN015
      AMD LTD TO CLD VIS AND WIND=



000
FTUS41 KCAR 071757
TAFPQI
TAF
KPQI 071757Z 0718/0818 31013G20KT P6SM FEW250
     FM072100 31009KT P6SM FEW250
     FM080000 31005KT P6SM FEW200
     FM080400 01004KT P6SM SCT130
     FM081500 03008KT P6SM BKN015=



000
FTUS41 KCAR 071757
TAFHUL
TAF
KHUL 071757Z 0718/0818 30013G20KT P6SM SCT250
     FM072000 32009KT P6SM FEW250
     FM080200 35005KT P6SM FEW120
     FM081400 04009KT P6SM BKN015=



000
FTUS41 KCAR 071757
TAFCAR
TAF
KCAR 071757Z 0718/0818 31012KT P6SM FEW250
     FM072200 30007KT P6SM FEW250
     FM080300 01006KT P6SM FEW140
     FM081500 03008KT P6SM BKN015=



000
FTUS41 KCAR 071757
TAFBGR
TAF
KBGR 071757Z 0718/0818 32007KT P6SM BKN025
     FM071900 31007KT P6SM BKN250
     FM072300 01007KT P6SM SCT110
     FM081400 03012KT P6SM BKN015=



000
FTUS41 KCAR 071757
TAFBGR
TAF
KBGR 071757Z 0718/0818 32007KT P6SM BKN025
     FM071900 31007KT P6SM BKN250
     FM072300 01007KT P6SM SCT110
     FM081400 03012KT P6SM BKN015=



000
FTUS41 KCAR 071757
TAFBHB
TAF
KBHB 071757Z 0718/0818 34007KT P6SM SCT250
     FM072200 34007KT P6SM SCT250
     FM080300 03011KT P6SM SCT250
     FM081400 03012KT P6SM BKN015
      AMD LTD TO CLD VIS AND WIND=



000
FTUS41 KCAR 071708 AAB
TAFBHB
TAF AMD
KBHB 071708Z 0717/0812 34010G18KT P6SM VCSH BKN045
     FM071800 32010G18KT P6SM SCT045
     FM080000 35006KT P6SM SKC
      AMD LTD TO CLD VIS AND WIND=



000
FTUS41 KCAR 071708 AAB
TAFBHB
TAF AMD
KBHB 071708Z 0717/0812 34010G18KT P6SM VCSH BKN045
     FM071800 32010G18KT P6SM SCT045
     FM080000 35006KT P6SM SKC
      AMD LTD TO CLD VIS AND WIND=



000
FTUS41 KCAR 071708 AAC
TAFHUL
TAF AMD
KHUL 071708Z 0717/0812 32012G20KT P6SM SCT040
     FM080000 35005KT P6SM SKC=



000
FTUS41 KCAR 071708 AAC
TAFHUL
TAF AMD
KHUL 071708Z 0717/0812 32012G20KT P6SM SCT040
     FM080000 35005KT P6SM SKC=



000
FTUS41 KCAR 071707 AAE
TAFPQI
TAF AMD
KPQI 071707Z 0717/0812 31015G25KT P6SM SCT035
     FM071800 32012G20KT P6SM SCT040
     FM080000 36003KT P6SM SKC=



000
FTUS41 KCAR 071707 AAL
TAFCAR
TAF AMD
KCAR 071707Z 0717/0812 31015G21KT P6SM BKN035
     FM071800 33012G20KT P6SM SCT040
     FM080000 36005KT P6SM SKC=



000
FTUS41 KCAR 071707 AAE
TAFPQI
TAF AMD
KPQI 071707Z 0717/0812 31015G25KT P6SM SCT035
     FM071800 32012G20KT P6SM SCT040
     FM080000 36003KT P6SM SKC=



000
FTUS41 KCAR 071707 AAL
TAFCAR
TAF AMD
KCAR 071707Z 0717/0812 31015G21KT P6SM BKN035
     FM071800 33012G20KT P6SM SCT040
     FM080000 36005KT P6SM SKC=



000
FTUS41 KCAR 071617 AAB
TAFBGR
TAF AMD
KBGR 071617Z 0716/0812 33010KT P6SM VCSH BKN045
     FM071800 31010G18KT P6SM BKN045
     FM072000 36010KT P6SM SCT050
     FM080000 36005KT P6SM SKC=



000
FTUS41 KCAR 071617 AAA
TAFBHB
TAF AMD
KBHB 071617Z 0716/0812 26010KT P6SM BKN050
     FM071700 29010G18KT P6SM VCSH BKN045
     FM071800 32010G18KT P6SM SCT045
     FM080000 35006KT P6SM SKC
      AMD LTD TO CLD VIS AND WIND=



000
FTUS41 KCAR 071558 AAD
TAFPQI
TAF AMD
KPQI 071558Z 0716/0812 34015G25KT P6SM SCT035
     FM071800 33012G20KT P6SM SCT040
     FM080000 36003KT P6SM SKC=



000
FTUS41 KCAR 071542 AAA
TAFBGR
TAF AMD
KBGR 071542Z 0716/0812 34018KT 3SM -SHSN BKN035
     FM071630 32010G18KT P6SM VCSH BKN045
     FM071800 31010G18KT P6SM BKN045
     FM072000 36010KT P6SM SCT050
     FM080000 36005KT P6SM SKC=



000
FTUS41 KCAR 071541 AAI
TAFCAR
TAF AMD
KCAR 071541Z 0716/0812 33015G25KT P6SM BKN035
     FM071800 33012G20KT P6SM SCT040
     FM080000 36005KT P6SM SKC=



000
FTUS41 KCAR 071329 AAC
TAFPQI
TAF AMD
KPQI 071329Z 0713/0812 29009KT P6SM -SN SCT025 BKN035 OVC060
     FM071400 29015G25KT P6SM BKN035
     FM071800 33012G20KT P6SM SCT040
     FM080000 36003KT P6SM SKC=



000
FTUS41 KCAR 071313 AAC
TAFCAR
TAF AMD
KCAR 071313Z 0713/0812 29010G20KT P6SM -SN BKN030 OVC100
     FM071400 29015G25KT P6SM BKN035
     FM071800 33012G20KT P6SM SCT040
     FM080000 36005KT P6SM SKC=



000
FTUS41 KCAR 071312 AAB
TAFHUL
TAF AMD
KHUL 071312Z 0713/0812 26009G15KT P6SM OVC050
     FM071700 33012KT P6SM SCT040
     FM080000 35005KT P6SM SKC=



000
FTUS41 KCAR 071309 AAA
TAFHUL
TAF AMD
KHUL 071309Z 0713/0812 26009G15KT P6SM OVC050
      TEMPO 0713/0714 30020G30KT 2SM -SHSN BKN030
     FM071700 33012KT P6SM SCT040
     FM080000 35005KT P6SM SKC=



000
FTUS41 KCAR 071308 AAB
TAFPQI
TAF AMD
KPQI 071308Z 0713/0812 29009KT P6SM -SN SCT025 BKN030 OVC060
     FM071400 29015G25KT P6SM BKN035
     FM071800 33012G20KT P6SM SCT040
     FM080000 36003KT P6SM SKC=



000
FTUS41 KCAR 071308 AAC
TAFCAR
TAF AMD
KCAR 071308Z 0713/0812 29010G20KT P6SM -SN SCT030 BKN035 OVC100
     FM071400 29015G25KT P6SM BKN035
     FM071800 33012G20KT P6SM SCT040
     FM080000 36005KT P6SM SKC=



000
FTUS41 KCAR 071308 AAC
TAFCAR
TAF AMD
KCAR 071308Z 0713/0812 29010G20KT P6SM -SN SCT030 BKN035 OVC100
     FM071400 29015G25KT P6SM BKN035
     FM071800 33012G20KT P6SM SCT040
     FM080000 36005KT P6SM SKC=



000
FTUS41 KCAR 071243 AAB
TAFCAR
TAF AMD
KCAR 071243Z 0713/0812 30010KT P6SM -SN SCT030 BKN035 OVC100
     FM071400 29015G25KT P6SM BKN035
     FM071800 33012G20KT P6SM SCT040
     FM080000 36005KT P6SM SKC=



000
FTUS41 KCAR 071243 AAA
TAFPQI
TAF AMD
KPQI 071243Z 0713/0812 29009G20KT P6SM -SN SCT025 BKN035 OVC060
     FM071400 29015G25KT P6SM BKN035
     FM071800 33012G20KT P6SM SCT040
     FM080000 36003KT P6SM SKC=



000
FTUS41 KCAR 071120
TAFBGR
TAF
KBGR 071120Z 0712/0812 22003KT P6SM SCT060 BKN120
     FM071600 28010G18KT P6SM VCSH BKN045
     FM071800 31010G18KT P6SM BKN045
     FM072000 36010KT P6SM SCT050
     FM080000 36005KT P6SM SKC=



000
FTUS41 KCAR 071120
TAFHUL
TAF
KHUL 071120Z 0712/0812 21009G15KT P6SM OVC050
      TEMPO 0712/0713 30020G30KT 1/2SM SHSN VV008
     FM071700 33012KT P6SM SCT040
     FM080000 35005KT P6SM SKC=



000
FTUS41 KCAR 071120
TAFBHB
TAF
KBHB 071120Z 0712/0812 00000KT P6SM FEW050 SCT080 OVC100
     FM071400 24010KT P6SM BKN050
     FM071600 27010G18KT P6SM VCSH BKN045
     FM071800 31010G18KT P6SM SCT045
     FM080000 35006KT P6SM SKC
      AMD LTD TO CLD VIS AND WIND=



000
FTUS41 KCAR 071120
TAFPQI
TAF
KPQI 071120Z 0712/0812 20009KT P6SM -SN SCT025 BKN035 OVC060
     FM071400 29015G25KT P6SM BKN035
     FM071800 33012G20KT P6SM SCT040
     FM080000 36003KT P6SM SKC=



000
FTUS41 KCAR 071120
TAFCAR
TAF
KCAR 071120Z 0712/0812 22011G16KT P6SM -SN SCT030 BKN035 OVC100
     FM071300 29015G25KT P6SM BKN035
     FM071800 33012G20KT P6SM SCT040
     FM080000 36005KT P6SM SKC=



000
FTUS41 KCAR 070520
TAFHUL
TAF
KHUL 070520Z 0706/0806 19009KT P6SM BKN100
     FM070900 24012KT P6SM VCSH OVC030
     FM071200 29012G22KT 3SM -SHSN OVC030
      TEMPO 0712/0713 30020G30KT 1/2SM SHSN VV008
     FM071700 33012KT P6SM SCT040=



000
FTUS41 KCAR 070520
TAFBHB
TAF
KBHB 070520Z 0706/0806 21007KT P6SM SCT100
     FM071400 24010KT P6SM BKN050
     FM071600 27010G18KT P6SM VCSH BKN045
     FM071800 31010G18KT P6SM SCT045
     FM072000 36010KT P6SM SCT050
      AMD LTD TO CLD VIS AND WIND=



000
FTUS41 KCAR 070520
TAFBGR
TAF
KBGR 070520Z 0706/0806 20006KT P6SM SCT100
     FM071200 24010KT P6SM BKN050
     FM071600 28010G18KT P6SM VCSH BKN045
     FM071800 31010G18KT P6SM BKN045
     FM072000 36010KT P6SM SCT050=



000
FTUS41 KCAR 070520
TAFPQI
TAF
KPQI 070520Z 0706/0806 20006KT P6SM -SN VCSH FEW050 OVC080
     FM071000 24012KT 3SM -SHSN OVC025
      TEMPO 0711/0713 30025G35KT 1/4SM +SHSN VV005
     FM071400 29012G22KT P6SM VCSH BKN035
     FM071800 33012KT P6SM SCT040=



000
FTUS41 KCAR 070520
TAFBHB
TAF
KBHB 070520Z 0706/0806 21007KT P6SM SCT100
     FM071400 24010KT P6SM BKN050
     FM071600 27010G18KT P6SM VCSH BKN045
     FM071800 31010G18KT P6SM SCT045
     FM072000 36010KT P6SM SCT050
      AMD LTD TO CLD VIS AND WIND=



000
FTUS41 KCAR 070520
TAFCAR
TAF
KCAR 070520Z 0706/0806 21005KT P6SM -SN VCSH FEW040 BKN060 OVC080
     FM070900 23010KT 3SM -SHSN BR OVC020
      TEMPO 0710/0712 30025G35KT 1/4SM +SHSN VV005
     FM071200 24012KT 3SM -SHSN OVC025
     FM071400 29012G22KT P6SM VCSH BKN035
     FM071800 33012KT P6SM SCT040=



000
FTUS41 KCAR 070308 AAA
TAFCAR
TAF AMD
KCAR 070308Z 0703/0724 20010KT P6SM VCSH SCT025 OVC040
      TEMPO 0703/0707 3SM -SHSN BKN025 OVC035
     FM070700 24012KT P6SM VCSH OVC025
     FM071200 24012KT 3SM -SHSN OVC025
     FM071400 29012G22KT P6SM VCSH BKN035
     FM071800 33012KT P6SM SCT040=



000
FTUS41 KCAR 070308 AAA
TAFCAR
TAF AMD
KCAR 070308Z 0703/0724 20010KT P6SM VCSH SCT025 OVC040
      TEMPO 0703/0707 3SM -SHSN BKN025 OVC035
     FM070700 24012KT P6SM VCSH OVC025
     FM071200 24012KT 3SM -SHSN OVC025
     FM071400 29012G22KT P6SM VCSH BKN035
     FM071800 33012KT P6SM SCT040=



000
FTUS41 KCAR 062337
TAFBGR
TAF
KBGR 062337Z 0700/0724 21010KT P6SM SCT060
     FM071200 24010KT P6SM BKN050
     FM071600 28010G18KT P6SM VCSH BKN045
     FM071800 31010G18KT P6SM BKN045
     FM072000 36010KT P6SM SCT050=



000
FTUS41 KCAR 062337
TAFHUL
TAF
KHUL 062337Z 0700/0724 20010KT P6SM OVC040
     FM070900 24012KT P6SM VCSH OVC030
     FM071500 29012G22KT 3SM -SHSN OVC030
     FM071700 33012KT P6SM SCT040=



000
FTUS41 KCAR 062337
TAFPQI
TAF
KPQI 062337Z 0700/0724 20010KT P6SM VCSH OVC040
     FM070800 24012KT P6SM VCSH OVC025
     FM071200 24012KT 3SM -SHSN OVC025
     FM071400 29012G22KT P6SM VCSH BKN035
     FM071800 33012KT P6SM SCT040=



000
FTUS41 KCAR 062337
TAFCAR
TAF
KCAR 062337Z 0700/0724 20010KT P6SM VCSH OVC040
     FM070800 24012KT P6SM VCSH OVC025
     FM071200 24012KT 3SM -SHSN OVC025
     FM071400 29012G22KT P6SM VCSH BKN035
     FM071800 33012KT P6SM SCT040=



000
FTUS41 KCAR 062337
TAFBHB
TAF
KBHB 062337Z 0700/0724 21010KT P6SM SCT060
     FM071400 24010KT P6SM BKN050
     FM071600 27010G18KT P6SM VCSH BKN045
     FM071800 31010G18KT P6SM SCT045
     FM072000 36010KT P6SM SCT050
      AMD LTD TO CLD VIS AND WIND=



000
FTUS41 KCAR 062337
TAFBGR
TAF
KBGR 062337Z 0700/0724 21010KT P6SM SCT060
     FM071200 24010KT P6SM BKN050
     FM071600 28010G18KT P6SM VCSH BKN045
     FM071800 31010G18KT P6SM BKN045
     FM072000 36010KT P6SM SCT050=



000
FTUS41 KCAR 062337
TAFCAR
TAF
KCAR 062337Z 0700/0724 20010KT P6SM VCSH OVC040
     FM070800 24012KT P6SM VCSH OVC025
     FM071200 24012KT 3SM -SHSN OVC025
     FM071400 29012G22KT P6SM VCSH BKN035
     FM071800 33012KT P6SM SCT040=



000
FTUS41 KCAR 062337
TAFPQI
TAF
KPQI 062337Z 0700/0724 20010KT P6SM VCSH OVC040
     FM070800 24012KT P6SM VCSH OVC025
     FM071200 24012KT 3SM -SHSN OVC025
     FM071400 29012G22KT P6SM VCSH BKN035
     FM071800 33012KT P6SM SCT040=



000
FTUS41 KCAR 062337
TAFBHB
TAF
KBHB 062337Z 0700/0724 21010KT P6SM SCT060
     FM071400 24010KT P6SM BKN050
     FM071600 27010G18KT P6SM VCSH BKN045
     FM071800 31010G18KT P6SM SCT045
     FM072000 36010KT P6SM SCT050
      AMD LTD TO CLD VIS AND WIND=



000
FTUS41 KCAR 062337
TAFHUL
TAF
KHUL 062337Z 0700/0724 20010KT P6SM OVC040
     FM070900 24012KT P6SM VCSH OVC030
     FM071500 29012G22KT 3SM -SHSN OVC030
     FM071700 33012KT P6SM SCT040=



000
FTUS41 KCAR 061758 CCA
TAFHUL
TAF COR
KHUL 061758Z 0618/0718 22007G16KT P6SM BKN040
     FM062000 21008KT P6SM BKN035
     FM062300 20008KT P6SM BKN040
     FM070500 21009KT P6SM BKN012
     FM071200 25011G19KT P6SM BKN035
     FM071500 28012G28KT 2SM -SHSN BKN030
     FM071700 29012G21KT P6SM SCT030=



000
FTUS41 KCAR 061755
TAFCAR
TAF
KCAR 061755Z 0618/0718 22007KT P6SM SCT035
     FM061900 22008KT P6SM BKN035
     FM070000 18008KT P6SM BKN035
     FM070700 21010KT P6SM BKN035
     FM071200 23009KT 2SM -SHSN BKN030
     FM071430 29011G20KT P6SM SCT030=



000
FTUS41 KCAR 061755
TAFPQI
TAF
KPQI 061755Z 0618/0718 22007KT P6SM SCT035
     FM061900 22008KT P6SM BKN035
     FM070000 18008KT P6SM BKN035
     FM070800 22009KT P6SM BKN045
     FM071300 28011G20KT 2SM -SHSN BKN025
     FM071530 30012G21KT P6SM SCT030=



000
FTUS41 KCAR 061755
TAFBHB
TAF
KBHB 061755Z 0618/0718 21010KT P6SM SCT200
     FM071500 27011G18KT P6SM FEW250
      AMD LTD TO CLD VIS AND WIND=



000
FTUS41 KCAR 061755
TAFHUL
TAF
KHUL 061755Z 0618/0718 22007KT P6SM SCT040
     FM062000 21008KT P6SM BKN035
     FM062300 20008KT P6SM BKN040
     FM070500 21009KT P6SM BKN012
     FM071200 25011G19KT P6SM BKN035
     FM071500 28012G28KT 2SM -SHSN BKN030
     FM071700 29012G21KT P6SM SCT030=



000
FTUS41 KCAR 061755
TAFBGR
TAF
KBGR 061755Z 0618/0718 22008KT P6SM SCT120
     FM071400 26009KT P6SM SCT250
     FM071700 29008KT 6SM -SHSN BKN030=



000
FTUS41 KCAR 061755
TAFBGR
TAF
KBGR 061755Z 0618/0718 22008KT P6SM SCT120
     FM071400 26009KT P6SM SCT250
     FM071700 29008KT 6SM -SHSN BKN030=



000
FTUS41 KCAR 061755
TAFHUL
TAF
KHUL 061755Z 0618/0718 22007KT P6SM SCT040
     FM062000 21008KT P6SM BKN035
     FM062300 20008KT P6SM BKN040
     FM070500 21009KT P6SM BKN012
     FM071200 25011G19KT P6SM BKN035
     FM071500 28012G28KT 2SM -SHSN BKN030
     FM071700 29012G21KT P6SM SCT030=



000
FTUS41 KCAR 061755
TAFCAR
TAF
KCAR 061755Z 0618/0718 22007KT P6SM SCT035
     FM061900 22008KT P6SM BKN035
     FM070000 18008KT P6SM BKN035
     FM070700 21010KT P6SM BKN035
     FM071200 23009KT 2SM -SHSN BKN030
     FM071430 29011G20KT P6SM SCT030=



000
FTUS41 KCAR 061755
TAFBHB
TAF
KBHB 061755Z 0618/0718 21010KT P6SM SCT200
     FM071500 27011G18KT P6SM FEW250
      AMD LTD TO CLD VIS AND WIND=



000
FTUS41 KCAR 061755
TAFPQI
TAF
KPQI 061755Z 0618/0718 22007KT P6SM SCT035
     FM061900 22008KT P6SM BKN035
     FM070000 18008KT P6SM BKN035
     FM070800 22009KT P6SM BKN045
     FM071300 28011G20KT 2SM -SHSN BKN025
     FM071530 30012G21KT P6SM SCT030=



000
FTUS41 KCAR 061120
TAFHUL
TAF
KHUL 061120Z 0612/0712 00000KT P6SM -SN SKC
     FM061600 24005KT P6SM BKN040
     FM061800 21006KT P6SM BKN025
     FM070200 21008KT 6SM -SN OVC025
     FM071100 29012G22KT 3SM -SHSN OVC018=



000
FTUS41 KCAR 061120
TAFBHB
TAF
KBHB 061120Z 0612/0712 00000KT P6SM SKC
     FM062100 21009KT P6SM SCT040
     FM070300 21010KT P6SM BKN035
      AMD LTD TO CLD VIS AND WIND=



000
FTUS41 KCAR 061120
TAFPQI
TAF
KPQI 061120Z 0612/0712 00000KT P6SM SKC
     FM061600 22006KT P6SM BKN040
     FM062000 19009KT P6SM BKN025
     FM070200 19010KT 5SM -SN BR OVC020
     FM071100 30014G22KT 3SM -SHSN OVC015=



000
FTUS41 KCAR 061120
TAFHUL
TAF
KHUL 061120Z 0612/0712 00000KT P6SM -SN SKC
     FM061600 24005KT P6SM BKN040
     FM061800 21006KT P6SM BKN025
     FM070200 21008KT 6SM -SN OVC025
     FM071100 29012G22KT 3SM -SHSN OVC018=



000
FTUS41 KCAR 061120
TAFBGR
TAF
KBGR 061120Z 0612/0712 23004KT P6SM SKC
     FM061800 22009KT P6SM SCT035
     FM070300 22008KT P6SM BKN035=



000
FTUS41 KCAR 061120
TAFBGR
TAF
KBGR 061120Z 0612/0712 23004KT P6SM SKC
     FM061800 22009KT P6SM SCT035
     FM070300 22008KT P6SM BKN035=



000
FTUS41 KCAR 061120
TAFPQI
TAF
KPQI 061120Z 0612/0712 00000KT P6SM SKC
     FM061600 22006KT P6SM BKN040
     FM062000 19009KT P6SM BKN025
     FM070200 19010KT 5SM -SN BR OVC020
     FM071100 30014G22KT 3SM -SHSN OVC015=



000
FTUS41 KCAR 061120
TAFCAR
TAF
KCAR 061120Z 0612/0712 23006KT P6SM SKC
     FM061600 22006KT P6SM BKN040
     FM062000 19009KT P6SM BKN025
     FM070200 19010KT 4SM -SN BR OVC020
     FM071100 30014G22KT 2SM -SHSN OVC015=



000
FTUS41 KCAR 061120
TAFCAR
TAF
KCAR 061120Z 0612/0712 23006KT P6SM SKC
     FM061600 22006KT P6SM BKN040
     FM062000 19009KT P6SM BKN025
     FM070200 19010KT 4SM -SN BR OVC020
     FM071100 30014G22KT 2SM -SHSN OVC015=



000
FTUS41 KCAR 061120
TAFBHB
TAF
KBHB 061120Z 0612/0712 00000KT P6SM SKC
     FM062100 21009KT P6SM SCT040
     FM070300 21010KT P6SM BKN035
      AMD LTD TO CLD VIS AND WIND=



000
FTUS41 KCAR 060520
TAFCAR
TAF
KCAR 060520Z 0606/0706 29004KT P6SM SKC
     FM061600 22006KT P6SM BKN040
     FM062000 19009KT P6SM BKN025
     FM070200 19010KT 4SM -SN BR OVC020=



000
FTUS41 KCAR 060520
TAFHUL
TAF
KHUL 060520Z 0606/0706 34006KT P6SM SKC
     FM061600 24005KT P6SM BKN040
     FM061800 21006KT P6SM BKN025
     FM070200 21008KT 6SM -SN OVC025=



000
FTUS41 KCAR 060520
TAFPQI
TAF
KPQI 060520Z 0606/0706 30009KT P6SM SKC
     FM061600 22006KT P6SM BKN040
     FM062000 19009KT P6SM BKN025
     FM070200 19010KT 5SM -SN BR OVC020=



000
FTUS41 KCAR 060520
TAFBGR
TAF
KBGR 060520Z 0606/0706 31015KT P6SM FEW030
     FM061800 22009KT P6SM SCT035
     FM070300 22008KT P6SM BKN035=



000
FTUS41 KCAR 060520
TAFBHB
TAF
KBHB 060520Z 0606/0706 32004KT P6SM SCT020
     FM060800 31010KT P6SM FEW250
     FM062100 21009KT P6SM SCT040
     FM070300 21010KT P6SM BKN035
      AMD LTD TO CLD VIS AND WIND=



000
FTUS41 KCAR 060119 AAA
TAFBHB
TAF AMD
KBHB 060119Z 0601/0624 36016G24KT 2SM -SN BLSN OVC013
     FM060200 34016G24KT 6SM BLSN BKN020
     FM060400 33015G22KT P6SM SCT250
     FM060800 31010KT P6SM FEW250
     FM062100 21009KT P6SM SCT040
      AMD LTD TO CLD VIS AND WIND=



000
FTUS41 KCAR 060119 AAA
TAFBHB
TAF AMD
KBHB 060119Z 0601/0624 36016G24KT 2SM -SN BLSN OVC013
     FM060200 34016G24KT 6SM BLSN BKN020
     FM060400 33015G22KT P6SM SCT250
     FM060800 31010KT P6SM FEW250
     FM062100 21009KT P6SM SCT040
      AMD LTD TO CLD VIS AND WIND=



000
FTUS41 KCAR 060116 AAA
TAFBGR
TAF AMD
KBGR 060116Z 0601/0624 33009G17KT 6SM BLSN BKN025
     FM060400 31014KT P6SM SCT250
     FM061800 22009KT P6SM SCT035=



000
FTUS41 KCAR 060116 AAA
TAFBGR
TAF AMD
KBGR 060116Z 0601/0624 33009G17KT 6SM BLSN BKN025
     FM060400 31014KT P6SM SCT250
     FM061800 22009KT P6SM SCT035=



000
FTUS41 KCAR 060003 AAA
TAFHUL
TAF AMD
KHUL 060003Z 0600/0624 35012KT 1SM -SN OVC015
     FM060100 35012KT 5SM -SN OVC015
     FM060200 35012KT P6SM BKN020
     FM060400 33013KT P6SM SCT020
     FM060600 32010KT P6SM FEW250
     FM061600 24005KT P6SM BKN040
     FM061800 21006KT P6SM BKN025=



000
FTUS41 KCAR 060003 AAA
TAFHUL
TAF AMD
KHUL 060003Z 0600/0624 35012KT 1SM -SN OVC015
     FM060100 35012KT 5SM -SN OVC015
     FM060200 35012KT P6SM BKN020
     FM060400 33013KT P6SM SCT020
     FM060600 32010KT P6SM FEW250
     FM061600 24005KT P6SM BKN040
     FM061800 21006KT P6SM BKN025=



000
FTUS41 KCAR 052325
TAFPQI
TAF
KPQI 052325Z 0600/0624 35011KT P6SM OVC040
     FM060600 30010KT P6SM FEW250
     FM061600 22006KT P6SM BKN040
     FM062000 19009KT P6SM BKN025=



000
FTUS41 KCAR 052325
TAFCAR
TAF
KCAR 052325Z 0600/0624 35010KT P6SM OVC040
     FM060400 33011KT P6SM SCT040
     FM060800 29007KT P6SM FEW250
     FM061600 22006KT P6SM BKN040
     FM062000 19009KT P6SM BKN025=



000
FTUS41 KCAR 052325
TAFBHB
TAF
KBHB 052325Z 0600/0624 36016G24KT 2SM -SN BLSN OVC013
     FM060100 34016G24KT 6SM BLSN BKN020
     FM060400 33015G22KT P6SM SCT250
     FM060800 31010KT P6SM FEW250
     FM062100 21009KT P6SM SCT040
      AMD LTD TO CLD VIS AND WIND=



000
FTUS41 KCAR 052325
TAFHUL
TAF
KHUL 052325Z 0600/0624 35012KT 3SM -SN OVC015
     FM060100 35012KT P6SM OVC015
     FM060400 33013KT P6SM SCT010
     FM060600 32010KT P6SM FEW250
     FM061600 24005KT P6SM BKN040
     FM061800 21006KT P6SM BKN025=



000
FTUS41 KCAR 052325
TAFBGR
TAF
KBGR 052325Z 0600/0624 36014G22KT 2SM -SN BLSN OVC008
     FM060300 33014G21KT 6SM BLSN BKN015
     FM060400 31014KT P6SM SCT250
     FM061800 22009KT P6SM SCT035=



000
FTUS41 KCAR 052325
TAFCAR
TAF
KCAR 052325Z 0600/0624 35010KT P6SM OVC040
     FM060400 33011KT P6SM SCT040
     FM060800 29007KT P6SM FEW250
     FM061600 22006KT P6SM BKN040
     FM062000 19009KT P6SM BKN025=



000
FTUS41 KCAR 052325
TAFBGR
TAF
KBGR 052325Z 0600/0624 36014G22KT 2SM -SN BLSN OVC008
     FM060300 33014G21KT 6SM BLSN BKN015
     FM060400 31014KT P6SM SCT250
     FM061800 22009KT P6SM SCT035=



000
FTUS41 KCAR 052325
TAFHUL
TAF
KHUL 052325Z 0600/0624 35012KT 3SM -SN OVC015
     FM060100 35012KT P6SM OVC015
     FM060400 33013KT P6SM SCT010
     FM060600 32010KT P6SM FEW250
     FM061600 24005KT P6SM BKN040
     FM061800 21006KT P6SM BKN025=



000
FTUS41 KCAR 052325
TAFPQI
TAF
KPQI 052325Z 0600/0624 35011KT P6SM OVC040
     FM060600 30010KT P6SM FEW250
     FM061600 22006KT P6SM BKN040
     FM062000 19009KT P6SM BKN025=



000
FTUS41 KCAR 052325
TAFBHB
TAF
KBHB 052325Z 0600/0624 36016G24KT 2SM -SN BLSN OVC013
     FM060100 34016G24KT 6SM BLSN BKN020
     FM060400 33015G22KT P6SM SCT250
     FM060800 31010KT P6SM FEW250
     FM062100 21009KT P6SM SCT040
      AMD LTD TO CLD VIS AND WIND=



000
FTUS41 KCAR 052321
TAFPQI
TAF
KPQI 052321Z 0600/0624 35011KT P6SM OVC040
     FM060600 30010KT P6SM FEW250
     FM061600 22006KT P6SM BKN040
     FM062000 19009KT P6SM BKN025=



000
FTUS41 KCAR 052321
TAFBGR
TAF
KBGR 052321Z 0600/0624 36014G22KT 6SM BLSN OVC008
     FM060300 33014G21KT 6SM BLSN BKN015
     FM060400 32014KT P6SM SCT250
     FM060800 29009KT P6SM FEW250
     FM061800 22009KT P6SM SCT035
     FM062000 20009KT P6SM BKN035=



000
FTUS41 KCAR 052321
TAFCAR
TAF
KCAR 052321Z 0600/0624 35010KT P6SM OVC040
     FM060400 33011KT P6SM SCT040
     FM060800 29007KT P6SM FEW250
     FM061600 22006KT P6SM BKN040
     FM062000 19009KT P6SM BKN025=



000
FTUS41 KCAR 052321
TAFBGR
TAF
KBGR 052321Z 0600/0624 36014G22KT 6SM BLSN OVC008
     FM060300 33014G21KT 6SM BLSN BKN015
     FM060400 32014KT P6SM SCT250
     FM060800 29009KT P6SM FEW250
     FM061800 22009KT P6SM SCT035
     FM062000 20009KT P6SM BKN035=



000
FTUS41 KCAR 052321
TAFBHB
TAF
KBHB 052321Z 0600/0624 36016G24KT 2SM -SN BLSN OVC013
     FM060100 34016G24KT 6SM BLSN BKN020
     FM060400 33015G22KT P6SM SCT250
     FM060800 31010KT P6SM FEW250
     FM062100 21009KT P6SM SCT040
      AMD LTD TO CLD VIS AND WIND=



000
FTUS41 KCAR 052321
TAFPQI
TAF
KPQI 052321Z 0600/0624 35011KT P6SM OVC040
     FM060600 30010KT P6SM FEW250
     FM061600 22006KT P6SM BKN040
     FM062000 19009KT P6SM BKN025=



000
FTUS41 KCAR 052321
TAFHUL
TAF
KHUL 052321Z 0600/0624 35012KT P6SM OVC015
     FM060400 33013KT P6SM SCT010
     FM060600 32010KT P6SM FEW250
     FM061600 24005KT P6SM BKN040
     FM061800 21006KT P6SM BKN025=



000
FTUS41 KCAR 052321
TAFHUL
TAF
KHUL 052321Z 0600/0624 35012KT P6SM OVC015
     FM060400 33013KT P6SM SCT010
     FM060600 32010KT P6SM FEW250
     FM061600 24005KT P6SM BKN040
     FM061800 21006KT P6SM BKN025=



000
FTUS41 KCAR 052321
TAFCAR
TAF
KCAR 052321Z 0600/0624 35010KT P6SM OVC040
     FM060400 33011KT P6SM SCT040
     FM060800 29007KT P6SM FEW250
     FM061600 22006KT P6SM BKN040
     FM062000 19009KT P6SM BKN025=



000
FTUS41 KCAR 052321
TAFBHB
TAF
KBHB 052321Z 0600/0624 36016G24KT 2SM -SN BLSN OVC013
     FM060100 34016G24KT 6SM BLSN BKN020
     FM060400 33015G22KT P6SM SCT250
     FM060800 31010KT P6SM FEW250
     FM062100 21009KT P6SM SCT040
      AMD LTD TO CLD VIS AND WIND=



000
FTUS41 KCAR 052248 AAB
TAFPQI
TAF AMD
KPQI 052248Z 0523/0618 36012KT P6SM OVC045
     FM060600 33010KT P6SM SCT050
     FM061500 24008KT P6SM BKN035=



000
FTUS41 KCAR 052240 AAB
TAFBHB
TAF AMD
KBHB 052240Z 0523/0618 36012G20KT 1SM -SN BR OVC008
     FM052330 36012G22KT 3SM -SN BR OVC020
     FM060000 34012G22KT P6SM VCSH OVC035
     FM060200 34012G22KT P6SM OVC040
     FM060600 33012KT P6SM SCT050
     FM061500 24010KT P6SM BKN040
      AMD LTD TO CLD VIS AND WIND=



000
FTUS41 KCAR 052239 AAC
TAFBGR
TAF AMD
KBGR 052239Z 0523/0618 36012KT 1SM -SN BR OVC010
     FM052330 36012KT 3SM -SN BR OVC025
     FM060030 34012KT P6SM VCSH OVC035
     FM060200 34012KT P6SM OVC040
     FM060600 33010KT P6SM SCT050
     FM061500 24010KT P6SM BKN040=



000
FTUS41 KCAR 052239 AAC
TAFBGR
TAF AMD
KBGR 052239Z 0523/0618 36012KT 1SM -SN BR OVC010
     FM052330 36012KT 3SM -SN BR OVC025
     FM060030 34012KT P6SM VCSH OVC035
     FM060200 34012KT P6SM OVC040
     FM060600 33010KT P6SM SCT050
     FM061500 24010KT P6SM BKN040=



000
FTUS41 KCAR 052219 AAA
TAFHUL
TAF AMD
KHUL 052219Z 0522/0618 36012KT 1SM -SN BR OVC010
     FM052300 36012KT 3SM -SN BR OVC025
     FM060000 36012KT P6SM VCSH OVC035
     FM060200 34012KT P6SM OVC040
     FM060600 33010KT P6SM SCT050
     FM061500 24008KT P6SM BKN040=



    US Dept of Commerce
    National Oceanic and Atmospheric Administration
    National Weather Service
    1325 East West Highway
    Silver Spring, MD 20910
    Page Author: NWS Internet Services Team
Disclaimer
Information Quality
Credits
Glossary
Privacy Policy
Freedom of Information Act (FOIA)
About Us
Career Opportunities